sensor_id;sensor_type;location;lat;lon;timestamp;pressure;altitude;pressure_sealevel;temperature;humidity
17054;BME280;8643;48.824;11.422;2023-03-01T00:01:54;97633.19;;;-0.97;100.00
17054;BME280;8643;48.824;11.422;2023-03-01T00:04:22;97639.53;;;-1.03;100.00
17054;BME280;8643;48.824;11.422;2023-03-01T00:06:51;97636.38;;;-1.00;100.00
17054;BME280;8643;48.824;11.422;2023-03-01T00:09:19;97635.66;;;-0.95;100.00
17054;BME280;8643;48.824;11.422;2023-03-01T00:11:48;97644.09;;;-1.03;100.00
17054;BME280;8643;48.824;11.422;2023-03-01T00:14:17;97640.03;;;-1.06;100.00
17054;BME280;8643;48.824;11.422;2023-03-01T00:16:46;97632.22;;;-1.07;100.00
17054;BME280;8643;48.824;11.422;2023-03-01T00:19:19;97632.88;;;-1.00;100.00
17054;BME280;8643;48.824;11.422;2023-03-01T00:21:49;97635.78;;;-1.02;100.00
17054;BME280;8643;48.824;11.422;2023-03-01T00:24:17;97626.94;;;-1.02;100.00
17054;BME280;8643;48.824;11.422;2023-03-01T00:26:45;97630.09;;;-1.05;100.00
17054;BME280;8643;48.824;11.422;2023-03-01T00:29:14;97629.84;;;-1.04;100.00
17054;BME280;8643;48.824;11.422;2023-03-01T00:31:43;97628.13;;;-1.10;100.00
17054;BME280;8643;48.824;11.422;2023-03-01T00:34:11;97629.75;;;-1.09;100.00
17054;BME280;8643;48.824;11.422;2023-03-01T00:36:41;97628.59;;;-1.13;100.00
17054;BME280;8643;48.824;11.422;2023-03-01T00:39:13;97632.81;;;-1.17;100.00
17054;BME280;8643;48.824;11.422;2023-03-01T00:41:42;97626.38;;;-1.16;100.00
17054;BME280;8643;48.824;11.422;2023-03-01T00:44:11;97624.16;;;-1.19;100.00
17054;BME280;8643;48.824;11.422;2023-03-01T00:46:40;97624.75;;;-1.17;100.00
17054;BME280;8643;48.824;11.422;2023-03-01T00:49:08;97624.75;;;-1.17;100.00
17054;BME280;8643;48.824;11.422;2023-03-01T00:51:37;97622.56;;;-1.20;100.00
17054;BME280;8643;48.824;11.422;2023-03-01T00:54:08;97625.25;;;-1.20;100.00
17054;BME280;8643;48.824;11.422;2023-03-01T00:56:37;97629.78;;;-1.21;100.00
17054;BME280;8643;48.824;11.422;2023-03-01T00:59:05;97626.28;;;-1.21;100.00
17054;BME280;8643;48.824;11.422;2023-03-01T01:01:34;97623.69;;;-1.16;100.00
17054;BME280;8643;48.824;11.422;2023-03-01T01:04:08;97614.59;;;-1.15;100.00
17054;BME280;8643;48.824;11.422;2023-03-01T01:06:41;97615.53;;;-1.21;100.00
17054;BME280;8643;48.824;11.422;2023-03-01T01:09:15;97609.13;;;-1.20;100.00
17054;BME280;8643;48.824;11.422;2023-03-01T01:11:48;97605.50;;;-1.26;100.00
17054;BME280;8643;48.824;11.422;2023-03-01T01:14:17;97599.88;;;-1.24;100.00
17054;BME280;8643;48.824;11.422;2023-03-01T01:16:46;97604.44;;;-1.25;100.00
17054;BME280;8643;48.824;11.422;2023-03-01T01:19:15;97597.44;;;-1.26;100.00
17054;BME280;8643;48.824;11.422;2023-03-01T01:21:43;97599.06;;;-1.25;100.00
17054;BME280;8643;48.824;11.422;2023-03-01T01:24:14;97584.94;;;-1.20;100.00
17054;BME280;8643;48.824;11.422;2023-03-01T01:26:43;97593.69;;;-1.25;100.00
17054;BME280;8643;48.824;11.422;2023-03-01T01:29:12;97596.38;;;-1.25;100.00
17054;BME280;8643;48.824;11.422;2023-03-01T01:31:42;97592.38;;;-1.22;100.00
17054;BME280;8643;48.824;11.422;2023-03-01T01:34:15;97589.81;;;-1.17;100.00
17054;BME280;8643;48.824;11.422;2023-03-01T01:36:47;97585.41;;;-1.23;100.00
17054;BME280;8643;48.824;11.422;2023-03-01T01:39:17;97586.22;;;-1.23;100.00
17054;BME280;8643;48.824;11.422;2023-03-01T01:41:45;97583.75;;;-1.24;100.00
17054;BME280;8643;48.824;11.422;2023-03-01T01:44:18;97578.00;;;-1.16;100.00
17054;BME280;8643;48.824;11.422;2023-03-01T01:46:50;97575.78;;;-1.19;100.00
17054;BME280;8643;48.824;11.422;2023-03-01T01:49:31;97577.66;;;-1.20;100.00
17054;BME280;8643;48.824;11.422;2023-03-01T01:52:08;97569.53;;;-1.25;100.00
17054;BME280;8643;48.824;11.422;2023-03-01T01:54:44;97575.69;;;-1.24;100.00
17054;BME280;8643;48.824;11.422;2023-03-01T01:57:20;97573.56;;;-1.22;100.00
17054;BME280;8643;48.824;11.422;2023-03-01T01:59:54;97573.00;;;-1.24;100.00
17054;BME280;8643;48.824;11.422;2023-03-01T02:02:26;97563.06;;;-1.24;100.00
17054;BME280;8643;48.824;11.422;2023-03-01T02:05:12;97561.22;;;-1.23;100.00
17054;BME280;8643;48.824;11.422;2023-03-01T02:07:44;97562.59;;;-1.21;100.00
17054;BME280;8643;48.824;11.422;2023-03-01T02:10:15;97564.47;;;-1.21;100.00
17054;BME280;8643;48.824;11.422;2023-03-01T02:12:44;97562.59;;;-1.21;100.00
17054;BME280;8643;48.824;11.422;2023-03-01T02:15:13;97549.31;;;-1.27;100.00
17054;BME280;8643;48.824;11.422;2023-03-01T02:17:42;97550.38;;;-1.28;100.00
17054;BME280;8643;48.824;11.422;2023-03-01T02:20:22;97546.75;;;-1.34;100.00
17054;BME280;8643;48.824;11.422;2023-03-01T02:22:53;97558.69;;;-1.30;100.00
17054;BME280;8643;48.824;11.422;2023-03-01T02:25:36;97555.75;;;-1.28;100.00
17054;BME280;8643;48.824;11.422;2023-03-01T02:28:21;97554.09;;;-1.30;100.00
17054;BME280;8643;48.824;11.422;2023-03-01T02:30:51;97547.56;;;-1.34;100.00
17054;BME280;8643;48.824;11.422;2023-03-01T02:33:39;97540.59;;;-1.35;100.00
17054;BME280;8643;48.824;11.422;2023-03-01T02:36:15;97538.13;;;-1.36;100.00
17054;BME280;8643;48.824;11.422;2023-03-01T02:38:48;97534.97;;;-1.33;100.00
17054;BME280;8643;48.824;11.422;2023-03-01T02:41:20;97528.53;;;-1.32;100.00
17054;BME280;8643;48.824;11.422;2023-03-01T02:43:51;97534.72;;;-1.32;100.00
17054;BME280;8643;48.824;11.422;2023-03-01T02:46:22;97529.59;;;-1.33;100.00
17054;BME280;8643;48.824;11.422;2023-03-01T02:48:54;97538.13;;;-1.36;100.00
17054;BME280;8643;48.824;11.422;2023-03-01T02:51:41;97527.63;;;-1.38;100.00
17054;BME280;8643;48.824;11.422;2023-03-01T02:54:20;97521.31;;;-1.32;100.00
17054;BME280;8643;48.824;11.422;2023-03-01T02:56:51;97523.06;;;-1.37;100.00
17054;BME280;8643;48.824;11.422;2023-03-01T02:59:27;97519.72;;;-1.44;100.00
17054;BME280;8643;48.824;11.422;2023-03-01T03:01:57;97514.16;;;-1.55;100.00
17054;BME280;8643;48.824;11.422;2023-03-01T03:04:29;97511.34;;;-1.60;100.00
17054;BME280;8643;48.824;11.422;2023-03-01T03:07:01;97521.09;;;-1.71;100.00
17054;BME280;8643;48.824;11.422;2023-03-01T03:09:29;97522.50;;;-1.80;100.00
17054;BME280;8643;48.824;11.422;2023-03-01T03:11:58;97516.47;;;-1.87;100.00
17054;BME280;8643;48.824;11.422;2023-03-01T03:14:28;97512.66;;;-2.03;100.00
17054;BME280;8643;48.824;11.422;2023-03-01T03:16:56;97515.00;;;-2.18;100.00
17054;BME280;8643;48.824;11.422;2023-03-01T03:19:25;97503.69;;;-2.21;100.00
17054;BME280;8643;48.824;11.422;2023-03-01T03:21:53;97503.94;;;-2.22;100.00
17054;BME280;8643;48.824;11.422;2023-03-01T03:24:21;97503.59;;;-2.26;100.00
17054;BME280;8643;48.824;11.422;2023-03-01T03:26:50;97498.81;;;-2.35;100.00
17054;BME280;8643;48.824;11.422;2023-03-01T03:29:19;97505.22;;;-2.36;100.00
17054;BME280;8643;48.824;11.422;2023-03-01T03:31:48;97501.06;;;-2.44;100.00
17054;BME280;8643;48.824;11.422;2023-03-01T03:34:18;97508.03;;;-2.55;100.00
17054;BME280;8643;48.824;11.422;2023-03-01T03:36:46;97497.88;;;-2.53;100.00
17054;BME280;8643;48.824;11.422;2023-03-01T03:39:15;97503.34;;;-2.48;100.00
17054;BME280;8643;48.824;11.422;2023-03-01T03:41:46;97497.66;;;-2.51;100.00
17054;BME280;8643;48.824;11.422;2023-03-01T03:44:14;97488.81;;;-2.52;100.00
17054;BME280;8643;48.824;11.422;2023-03-01T03:46:43;97482.88;;;-2.54;100.00
17054;BME280;8643;48.824;11.422;2023-03-01T03:49:12;97486.94;;;-2.63;100.00
17054;BME280;8643;48.824;11.422;2023-03-01T03:51:41;97495.78;;;-2.63;100.00
17054;BME280;8643;48.824;11.422;2023-03-01T03:54:09;97487.63;;;-2.68;100.00
17054;BME280;8643;48.824;11.422;2023-03-01T03:56:38;97487.88;;;-2.69;100.00
17054;BME280;8643;48.824;11.422;2023-03-01T03:59:07;97487.75;;;-2.74;100.00
17054;BME280;8643;48.824;11.422;2023-03-01T04:01:40;97491.13;;;-2.79;100.00
17054;BME280;8643;48.824;11.422;2023-03-01T04:04:09;97483.53;;;-2.82;100.00
17054;BME280;8643;48.824;11.422;2023-03-01T04:06:39;97486.91;;;-2.87;100.00
17054;BME280;8643;48.824;11.422;2023-03-01T04:09:07;97488.66;;;-2.92;100.00
17054;BME280;8643;48.824;11.422;2023-03-01T04:11:36;97487.25;;;-2.95;100.00
17054;BME280;8643;48.824;11.422;2023-03-01T04:14:05;97485.88;;;-2.98;100.00
17054;BME280;8643;48.824;11.422;2023-03-01T04:16:34;97489.69;;;-3.05;100.00
17054;BME280;8643;48.824;11.422;2023-03-01T04:19:03;97489.34;;;-3.09;100.00
17054;BME280;8643;48.824;11.422;2023-03-01T04:21:33;97482.13;;;-3.08;100.00
17054;BME280;8643;48.824;11.422;2023-03-01T04:24:05;97480.28;;;-3.08;100.00
17054;BME280;8643;48.824;11.422;2023-03-01T04:26:34;97480.06;;;-3.06;100.00
17054;BME280;8643;48.824;11.422;2023-03-01T04:29:02;97472.81;;;-3.06;100.00
17054;BME280;8643;48.824;11.422;2023-03-01T04:31:31;97470.94;;;-3.05;100.00
17054;BME280;8643;48.824;11.422;2023-03-01T04:34:01;97467.91;;;-3.09;100.00
17054;BME280;8643;48.824;11.422;2023-03-01T04:36:30;97475.59;;;-3.13;100.00
17054;BME280;8643;48.824;11.422;2023-03-01T04:38:59;97475.94;;;-3.21;100.00
17054;BME280;8643;48.824;11.422;2023-03-01T04:41:34;97475.09;;;-3.21;100.00
17054;BME280;8643;48.824;11.422;2023-03-01T04:44:03;97473.72;;;-3.24;100.00
17054;BME280;8643;48.824;11.422;2023-03-01T04:46:31;97476.03;;;-3.27;100.00
17054;BME280;8643;48.824;11.422;2023-03-01T04:49:00;97472.41;;;-3.33;100.00
17054;BME280;8643;48.824;11.422;2023-03-01T04:51:29;97475.78;;;-3.38;100.00
17054;BME280;8643;48.824;11.422;2023-03-01T04:53:59;97480.31;;;-3.38;100.00
17054;BME280;8643;48.824;11.422;2023-03-01T04:56:28;97472.38;;;-3.45;100.00
17054;BME280;8643;48.824;11.422;2023-03-01T04:58:59;97473.19;;;-3.44;100.00
17054;BME280;8643;48.824;11.422;2023-03-01T05:01:32;97470.06;;;-3.41;100.00
17054;BME280;8643;48.824;11.422;2023-03-01T05:04:02;97468.09;;;-3.34;100.00
17054;BME280;8643;48.824;11.422;2023-03-01T05:06:34;97472.53;;;-3.28;100.00
17054;BME280;8643;48.824;11.422;2023-03-01T05:09:03;97477.19;;;-3.35;100.00
17054;BME280;8643;48.824;11.422;2023-03-01T05:11:32;97471.94;;;-3.42;100.00
17054;BME280;8643;48.824;11.422;2023-03-01T05:14:05;97470.63;;;-3.39;100.00
17054;BME280;8643;48.824;11.422;2023-03-01T05:16:35;97478.31;;;-3.43;100.00
17054;BME280;8643;48.824;11.422;2023-03-01T05:19:04;97480.19;;;-3.43;100.00
17054;BME280;8643;48.824;11.422;2023-03-01T05:21:39;97477.75;;;-3.45;100.00
17054;BME280;8643;48.824;11.422;2023-03-01T05:24:28;97470.97;;;-3.47;100.00
17054;BME280;8643;48.824;11.422;2023-03-01T05:26:57;97476.69;;;-3.44;100.00
17054;BME280;8643;48.824;11.422;2023-03-01T05:29:29;97472.63;;;-3.46;100.00
17054;BME280;8643;48.824;11.422;2023-03-01T05:32:02;97478.69;;;-3.39;100.00
17054;BME280;8643;48.824;11.422;2023-03-01T05:34:34;97472.75;;;-3.41;100.00
17054;BME280;8643;48.824;11.422;2023-03-01T05:37:03;97471.59;;;-3.45;100.00
17054;BME280;8643;48.824;11.422;2023-03-01T05:39:32;97472.03;;;-3.48;100.00
17054;BME280;8643;48.824;11.422;2023-03-01T05:42:01;97466.44;;;-3.47;100.00
17054;BME280;8643;48.824;11.422;2023-03-01T05:44:37;97465.38;;;-3.46;100.00
17054;BME280;8643;48.824;11.422;2023-03-01T05:47:05;97465.38;;;-3.46;100.00
17054;BME280;8643;48.824;11.422;2023-03-01T05:49:34;97459.00;;;-3.45;100.00
17054;BME280;8643;48.824;11.422;2023-03-01T05:52:05;97455.75;;;-3.47;100.00
17054;BME280;8643;48.824;11.422;2023-03-01T05:54:34;97463.38;;;-3.51;100.00
17054;BME280;8643;48.824;11.422;2023-03-01T05:57:02;97462.94;;;-3.47;100.00
17054;BME280;8643;48.824;11.422;2023-03-01T05:59:31;97467.47;;;-3.48;100.00
17054;BME280;8643;48.824;11.422;2023-03-01T06:02:00;97461.91;;;-3.46;100.00
17054;BME280;8643;48.824;11.422;2023-03-01T06:04:29;97463.53;;;-3.45;100.00
17054;BME280;8643;48.824;11.422;2023-03-01T06:06:57;97471.81;;;-3.47;100.00
17054;BME280;8643;48.824;11.422;2023-03-01T06:09:26;97469.81;;;-3.52;100.00
17054;BME280;8643;48.824;11.422;2023-03-01T06:11:54;97468.53;;;-3.49;100.00
17054;BME280;8643;48.824;11.422;2023-03-01T06:14:22;97472.63;;;-3.46;100.00
17054;BME280;8643;48.824;11.422;2023-03-01T06:16:50;97476.69;;;-3.44;100.00
17054;BME280;8643;48.824;11.422;2023-03-01T06:19:20;97475.19;;;-3.40;100.00
17054;BME280;8643;48.824;11.422;2023-03-01T06:21:48;97482.88;;;-3.43;100.00
17054;BME280;8643;48.824;11.422;2023-03-01T06:24:20;97468.81;;;-3.39;100.00
17054;BME280;8643;48.824;11.422;2023-03-01T06:26:48;97466.47;;;-3.35;100.00
17054;BME280;8643;48.824;11.422;2023-03-01T06:29:16;97456.56;;;-3.35;100.00
17054;BME280;8643;48.824;11.422;2023-03-01T06:31:45;97461.81;;;-3.28;100.00
17054;BME280;8643;48.824;11.422;2023-03-01T06:34:14;97466.25;;;-3.22;100.00
17054;BME280;8643;48.824;11.422;2023-03-01T06:36:43;97464.78;;;-3.18;100.00
17054;BME280;8643;48.824;11.422;2023-03-01T06:39:12;97462.91;;;-3.17;100.00
17054;BME280;8643;48.824;11.422;2023-03-01T06:41:40;97475.38;;;-3.11;100.00
17054;BME280;8643;48.824;11.422;2023-03-01T06:44:09;97466.41;;;-3.05;100.00
17054;BME280;8643;48.824;11.422;2023-03-01T06:46:38;97470.13;;;-2.94;100.00
17054;BME280;8643;48.824;11.422;2023-03-01T06:49:06;97472.25;;;-2.84;100.00
17054;BME280;8643;48.824;11.422;2023-03-01T06:51:36;97470.28;;;-2.65;100.00
17054;BME280;8643;48.824;11.422;2023-03-01T06:54:06;97464.88;;;-2.42;100.00
17054;BME280;8643;48.824;11.422;2023-03-01T06:56:35;97467.66;;;-2.25;100.00
17054;BME280;8643;48.824;11.422;2023-03-01T06:59:04;97460.00;;;-1.92;100.00
17054;BME280;8643;48.824;11.422;2023-03-01T07:01:32;97460.47;;;-1.67;100.00
17054;BME280;8643;48.824;11.422;2023-03-01T07:04:01;97450.91;;;-1.45;100.00
17054;BME280;8643;48.824;11.422;2023-03-01T07:06:30;97460.59;;;-1.16;100.00
17054;BME280;8643;48.824;11.422;2023-03-01T07:08:59;97462.19;;;-0.81;100.00
17054;BME280;8643;48.824;11.422;2023-03-01T07:11:29;97455.59;;;-0.73;98.90
17054;BME280;8643;48.824;11.422;2023-03-01T07:13:57;97455.56;;;-0.56;97.91
17054;BME280;8643;48.824;11.422;2023-03-01T07:16:27;97453.09;;;-0.41;96.33
17054;BME280;8643;48.824;11.422;2023-03-01T07:18:55;97443.03;;;-0.28;94.16
17054;BME280;8643;48.824;11.422;2023-03-01T07:21:26;97439.28;;;-0.05;93.75
17054;BME280;8643;48.824;11.422;2023-03-01T07:23:54;97446.59;;;0.22;92.35
17054;BME280;8643;48.824;11.422;2023-03-01T07:26:23;97443.00;;;0.38;91.24
17054;BME280;8643;48.824;11.422;2023-03-01T07:28:53;97443.19;;;0.59;88.08
17054;BME280;8643;48.824;11.422;2023-03-01T07:31:22;97434.28;;;0.85;87.66
17054;BME280;8643;48.824;11.422;2023-03-01T07:33:50;97451.09;;;0.65;87.59
17054;BME280;8643;48.824;11.422;2023-03-01T07:36:18;97446.09;;;0.79;87.86
17054;BME280;8643;48.824;11.422;2023-03-01T07:38:47;97440.78;;;1.27;86.97
17054;BME280;8643;48.824;11.422;2023-03-01T07:41:16;97441.59;;;1.70;83.17
17054;BME280;8643;48.824;11.422;2023-03-01T07:43:44;97439.63;;;1.55;83.20
17054;BME280;8643;48.824;11.422;2023-03-01T07:46:14;97442.44;;;1.33;83.53
17054;BME280;8643;48.824;11.422;2023-03-01T07:48:43;97438.13;;;1.75;82.96
17054;BME280;8643;48.824;11.422;2023-03-01T07:51:15;97445.69;;;1.78;82.96
17054;BME280;8643;48.824;11.422;2023-03-01T07:53:46;97438.91;;;1.70;81.92
17054;BME280;8643;48.824;11.422;2023-03-01T07:56:16;97440.94;;;2.00;80.09
17054;BME280;8643;48.824;11.422;2023-03-01T07:58:46;97436.00;;;3.17;76.51
17054;BME280;8643;48.824;11.422;2023-03-01T08:01:21;97433.03;;;2.83;73.20
17054;BME280;8643;48.824;11.422;2023-03-01T08:03:51;97430.53;;;2.55;74.80
17054;BME280;8643;48.824;11.422;2023-03-01T08:06:19;97432.97;;;2.57;76.70
17054;BME280;8643;48.824;11.422;2023-03-01T08:08:48;97432.47;;;3.22;74.53
17054;BME280;8643;48.824;11.422;2023-03-01T08:11:16;97436.56;;;3.24;73.07
17054;BME280;8643;48.824;11.422;2023-03-01T08:13:48;97433.53;;;3.26;70.77
17054;BME280;8643;48.824;11.422;2023-03-01T08:16:20;97436.53;;;3.29;71.65
17054;BME280;8643;48.824;11.422;2023-03-01T08:18:49;97438.44;;;3.24;72.49
17054;BME280;8643;48.824;11.422;2023-03-01T08:21:18;97429.41;;;3.80;70.68
17054;BME280;8643;48.824;11.422;2023-03-01T08:23:46;97429.56;;;4.04;71.28
17054;BME280;8643;48.824;11.422;2023-03-01T08:26:20;97440.56;;;4.28;66.70
17054;BME280;8643;48.824;11.422;2023-03-01T08:28:49;97437.94;;;4.68;66.95
17054;BME280;8643;48.824;11.422;2023-03-01T08:31:22;97436.47;;;4.86;67.71
17054;BME280;8643;48.824;11.422;2023-03-01T08:33:53;97435.00;;;5.62;65.40
17054;BME280;8643;48.824;11.422;2023-03-01T08:36:25;97432.69;;;5.45;62.49
17054;BME280;8643;48.824;11.422;2023-03-01T08:38:53;97435.78;;;4.65;64.33
17054;BME280;8643;48.824;11.422;2023-03-01T08:41:22;97429.03;;;4.96;64.11
17054;BME280;8643;48.824;11.422;2023-03-01T08:43:51;97430.75;;;5.51;64.88
17054;BME280;8643;48.824;11.422;2023-03-01T08:46:21;97423.38;;;5.81;62.06
17054;BME280;8643;48.824;11.422;2023-03-01T08:48:49;97418.53;;;6.02;61.54
17054;BME280;8643;48.824;11.422;2023-03-01T08:51:20;97413.66;;;5.75;62.23
17054;BME280;8643;48.824;11.422;2023-03-01T08:53:49;97415.03;;;6.20;62.45
17054;BME280;8643;48.824;11.422;2023-03-01T08:56:18;97411.97;;;6.84;57.64
17054;BME280;8643;48.824;11.422;2023-03-01T08:58:48;97409.69;;;6.91;57.96
17054;BME280;8643;48.824;11.422;2023-03-01T09:01:18;97413.53;;;6.71;56.94
17054;BME280;8643;48.824;11.422;2023-03-01T09:03:48;97414.59;;;7.08;57.23
17054;BME280;8643;48.824;11.422;2023-03-01T09:06:17;97414.00;;;7.11;58.12
17054;BME280;8643;48.824;11.422;2023-03-01T09:08:48;97397.31;;;6.99;58.10
17054;BME280;8643;48.824;11.422;2023-03-01T09:11:20;97398.03;;;7.38;54.05
17054;BME280;8643;48.824;11.422;2023-03-01T09:13:49;97390.66;;;7.38;59.30
17054;BME280;8643;48.824;11.422;2023-03-01T09:16:20;97388.31;;;7.31;56.60
17054;BME280;8643;48.824;11.422;2023-03-01T09:18:52;97382.66;;;7.28;53.58
17054;BME280;8643;48.824;11.422;2023-03-01T09:21:23;97371.03;;;7.83;56.42
17054;BME280;8643;48.824;11.422;2023-03-01T09:24:07;97371.63;;;7.05;55.99
17054;BME280;8643;48.824;11.422;2023-03-01T09:26:40;97378.25;;;7.32;54.51
17054;BME280;8643;48.824;11.422;2023-03-01T09:29:08;97366.94;;;7.25;54.76
17054;BME280;8643;48.824;11.422;2023-03-01T09:31:38;97367.50;;;7.82;56.56
17054;BME280;8643;48.824;11.422;2023-03-01T09:34:09;97361.41;;;7.85;53.63
17054;BME280;8643;48.824;11.422;2023-03-01T09:36:37;97371.91;;;7.50;56.26
17054;BME280;8643;48.824;11.422;2023-03-01T09:39:06;97359.81;;;7.70;53.97
17054;BME280;8643;48.824;11.422;2023-03-01T09:41:46;97355.16;;;7.85;54.00
17054;BME280;8643;48.824;11.422;2023-03-01T09:44:29;97350.59;;;8.08;55.70
17054;BME280;8643;48.824;11.422;2023-03-01T09:47:00;97361.13;;;7.59;53.96
17054;BME280;8643;48.824;11.422;2023-03-01T09:49:34;97351.63;;;8.12;53.86
17054;BME280;8643;48.824;11.422;2023-03-01T09:52:14;97356.41;;;8.79;56.86
17054;BME280;8643;48.824;11.422;2023-03-01T09:54:53;97360.00;;;8.16;53.28
17054;BME280;8643;48.824;11.422;2023-03-01T09:57:34;97358.47;;;8.23;53.79
17054;BME280;8643;48.824;11.422;2023-03-01T10:00:24;97352.44;;;8.86;58.59
17054;BME280;8643;48.824;11.422;2023-03-01T10:03:03;97351.31;;;8.87;55.54
17054;BME280;8643;48.824;11.422;2023-03-01T10:05:50;97347.75;;;8.63;54.63
17054;BME280;8643;48.824;11.422;2023-03-01T10:08:43;97353.84;;;7.96;57.74
17054;BME280;8643;48.824;11.422;2023-03-01T10:11:21;97346.09;;;8.40;57.12
17054;BME280;8643;48.824;11.422;2023-03-01T10:14:05;97342.56;;;8.39;59.31
17054;BME280;8643;48.824;11.422;2023-03-01T10:16:43;97338.28;;;9.06;58.16
17054;BME280;8643;48.824;11.422;2023-03-01T10:19:24;97339.81;;;8.53;56.96
17054;BME280;8643;48.824;11.422;2023-03-01T10:22:02;97326.94;;;8.68;57.00
17054;BME280;8643;48.824;11.422;2023-03-01T10:24:35;97326.44;;;8.88;54.96
17054;BME280;8643;48.824;11.422;2023-03-01T10:27:10;97317.38;;;9.42;55.79
17054;BME280;8643;48.824;11.422;2023-03-01T10:29:47;97318.03;;;8.85;51.33
17054;BME280;8643;48.824;11.422;2023-03-01T10:32:18;97313.78;;;9.24;55.97
17054;BME280;8643;48.824;11.422;2023-03-01T10:34:51;97317.44;;;10.17;55.22
17054;BME280;8643;48.824;11.422;2023-03-01T10:37:21;97316.22;;;10.32;51.01
17054;BME280;8643;48.824;11.422;2023-03-01T10:40:02;97319.31;;;9.81;50.38
17054;BME280;8643;48.824;11.422;2023-03-01T10:42:39;97315.91;;;9.67;51.88
17054;BME280;8643;48.824;11.422;2023-03-01T10:45:33;97299.72;;;9.08;51.33
17054;BME280;8643;48.824;11.422;2023-03-01T10:48:14;97302.69;;;8.97;53.42
17054;BME280;8643;48.824;11.422;2023-03-01T10:50:45;97300.03;;;9.06;52.61
17054;BME280;8643;48.824;11.422;2023-03-01T10:53:26;97295.97;;;9.35;51.05
17054;BME280;8643;48.824;11.422;2023-03-01T10:56:03;97295.16;;;9.26;53.11
17054;BME280;8643;48.824;11.422;2023-03-01T10:58:33;97293.72;;;9.68;54.01
17054;BME280;8643;48.824;11.422;2023-03-01T11:01:05;97287.19;;;10.13;49.41
17054;BME280;8643;48.824;11.422;2023-03-01T11:03:35;97287.16;;;9.87;52.41
17054;BME280;8643;48.824;11.422;2023-03-01T11:06:20;97285.03;;;9.66;53.65
17054;BME280;8643;48.824;11.422;2023-03-01T11:08:51;97280.66;;;9.57;53.18
17054;BME280;8643;48.824;11.422;2023-03-01T11:11:32;97273.19;;;9.40;51.06
17054;BME280;8643;48.824;11.422;2023-03-01T11:14:07;97275.56;;;9.90;56.57
17054;BME280;8643;48.824;11.422;2023-03-01T11:17:01;97269.63;;;9.97;49.10
17054;BME280;8643;48.824;11.422;2023-03-01T11:19:30;97268.06;;;9.47;48.73
17054;BME280;8643;48.824;11.422;2023-03-01T11:22:04;97261.63;;;9.43;51.17
17054;BME280;8643;48.824;11.422;2023-03-01T11:24:40;97244.13;;;9.52;53.41
17054;BME280;8643;48.824;11.422;2023-03-01T11:27:19;97251.59;;;9.29;49.79
17054;BME280;8643;48.824;11.422;2023-03-01T11:29:55;97242.28;;;9.88;54.76
17054;BME280;8643;48.824;11.422;2023-03-01T11:32:30;97238.19;;;9.10;49.98
17054;BME280;8643;48.824;11.422;2023-03-01T11:35:10;97236.94;;;9.74;50.06
17054;BME280;8643;48.824;11.422;2023-03-01T11:37:56;97236.31;;;9.95;49.25
17054;BME280;8643;48.824;11.422;2023-03-01T11:40:34;97228.81;;;10.35;50.00
17054;BME280;8643;48.824;11.422;2023-03-01T11:43:16;97227.16;;;10.08;53.11
17054;BME280;8643;48.824;11.422;2023-03-01T11:49:56;97215.41;;;10.25;49.94
17054;BME280;8643;48.824;11.422;2023-03-01T11:52:37;97222.19;;;10.19;48.22
17054;BME280;8643;48.824;11.422;2023-03-01T11:55:33;97214.91;;;10.49;49.32
17054;BME280;8643;48.824;11.422;2023-03-01T11:58:34;97211.53;;;10.00;48.67
17054;BME280;8643;48.824;11.422;2023-03-01T12:01:22;97210.72;;;9.73;48.81
17054;BME280;8643;48.824;11.422;2023-03-01T12:04:42;97196.25;;;10.25;50.97
17054;BME280;8643;48.824;11.422;2023-03-01T12:07:29;97181.91;;;11.01;51.11
17054;BME280;8643;48.824;11.422;2023-03-01T12:10:22;97176.75;;;11.38;47.37
17054;BME280;8643;48.824;11.422;2023-03-01T12:13:23;97169.31;;;11.09;48.03
17054;BME280;8643;48.824;11.422;2023-03-01T12:16:18;97155.31;;;11.83;47.98
17054;BME280;8643;48.824;11.422;2023-03-01T12:19:36;97160.97;;;11.35;45.16
17054;BME280;8643;48.824;11.422;2023-03-01T12:22:29;97158.59;;;10.95;48.79
17054;BME280;8643;48.824;11.422;2023-03-01T12:25:22;97149.06;;;11.31;46.06
17054;BME280;8643;48.824;11.422;2023-03-01T12:28:27;97148.44;;;11.98;47.03
17054;BME280;8643;48.824;11.422;2023-03-01T12:31:33;97143.44;;;12.00;46.74
17054;BME280;8643;48.824;11.422;2023-03-01T12:34:23;97136.66;;;11.76;49.45
17054;BME280;8643;48.824;11.422;2023-03-01T12:37:20;97135.75;;;12.26;49.12
17054;BME280;8643;48.824;11.422;2023-03-01T12:40:12;97128.28;;;12.48;46.02
17054;BME280;8643;48.824;11.422;2023-03-01T12:42:57;97122.22;;;12.55;47.87
17054;BME280;8643;48.824;11.422;2023-03-01T12:45:56;97118.84;;;12.24;49.52
17054;BME280;8643;48.824;11.422;2023-03-01T12:48:42;97125.59;;;12.73;47.95
17054;BME280;8643;48.824;11.422;2023-03-01T12:51:19;97105.81;;;13.04;45.24
17054;BME280;8643;48.824;11.422;2023-03-01T12:53:52;97109.69;;;13.15;47.45
17054;BME280;8643;48.824;11.422;2023-03-01T12:56:24;97105.91;;;13.20;45.93
17054;BME280;8643;48.824;11.422;2023-03-01T12:59:07;97092.84;;;12.22;44.78
17054;BME280;8643;48.824;11.422;2023-03-01T13:01:51;97099.09;;;12.10;48.50
17054;BME280;8643;48.824;11.422;2023-03-01T13:04:37;97102.78;;;12.72;44.85
17054;BME280;8643;48.824;11.422;2023-03-01T13:07:27;97093.00;;;12.38;49.03
17054;BME280;8643;48.824;11.422;2023-03-01T13:10:17;97088.84;;;12.19;46.29
17054;BME280;8643;48.824;11.422;2023-03-01T13:13:12;97089.81;;;12.48;45.39
17054;BME280;8643;48.824;11.422;2023-03-01T13:15:41;97086.31;;;12.14;45.48
17054;BME280;8643;48.824;11.422;2023-03-01T13:18:35;97086.78;;;12.62;43.82
17054;BME280;8643;48.824;11.422;2023-03-01T13:21:05;97085.88;;;12.24;45.22
17054;BME280;8643;48.824;11.422;2023-03-01T13:23:37;97083.53;;;11.38;45.80
17054;BME280;8643;48.824;11.422;2023-03-01T13:26:13;97086.03;;;11.73;48.70
17054;BME280;8643;48.824;11.422;2023-03-01T13:29:00;97087.66;;;12.08;45.78
17054;BME280;8643;48.824;11.422;2023-03-01T13:31:59;97085.72;;;12.54;49.49
17054;BME280;8643;48.824;11.422;2023-03-01T13:34:55;97087.13;;;12.27;48.87
17054;BME280;8643;48.824;11.422;2023-03-01T13:37:28;97087.66;;;12.08;48.10